Time;durP1;ratioP1;P1;durP2;ratioP2;P2;SDS_P1;SDS_P2;PMS_P1;PMS_P2;Temp;Humidity;BMP_temperature;BMP_pressure;BME280_temperature;BME280_humidity;BME280_pressure;Samples;Min_cycle;Max_cycle;Signal;HPM_P1;HPM_P2
2022/10/23 00:02:28;;;;;;;6.73;6.03;;;;;;;12.86;100.00;101166.59;4916078;29;20863;-70
2022/10/23 00:04:57;;;;;;;10.23;7.30;;;;;;;12.67;100.00;101157.44;4898311;29;20835;-71
2022/10/23 00:07:27;;;;;;;9.90;6.20;;;;;;;12.56;100.00;101166.19;4916750;29;20433;-70
2022/10/23 00:10:01;;;;;;;9.67;7.80;;;;;;;12.58;100.00;101166.84;4898358;29;20453;-70
2022/10/23 00:12:31;;;;;;;8.33;6.40;;;;;;;12.54;100.00;101168.28;4911622;29;20487;-70
2022/10/23 00:15:03;;;;;;;12.20;5.53;;;;;;;12.49;100.00;101166.19;4889344;29;20440;-70
2022/10/23 00:17:43;;;;;;;8.80;6.40;;;;;;;12.55;100.00;101168.06;4899179;29;20463;-69
2022/10/23 00:20:21;;;;;;;11.30;6.63;;;;;;;12.45;100.00;101166.81;4898451;29;20492;-69
2022/10/23 00:22:51;;;;;;;8.20;7.20;;;;;;;12.38;100.00;101171.41;4898939;29;20514;-70
2022/10/23 00:25:21;;;;;;;9.57;6.40;;;;;;;12.44;100.00;101179.53;4899252;29;20725;-70
2022/10/23 00:27:50;;;;;;;9.43;7.43;;;;;;;12.40;100.00;101180.16;4899506;29;20449;-71
2022/10/23 00:30:20;;;;;;;15.43;7.90;;;;;;;12.47;100.00;101183.72;4915939;29;20544;-70
2022/10/23 00:32:54;;;;;;;10.03;7.50;;;;;;;12.46;100.00;101182.06;4908529;29;20461;-71
2022/10/23 00:35:23;;;;;;;11.33;7.30;;;;;;;12.55;100.00;101192.50;4907577;29;20481;-70
2022/10/23 00:37:53;;;;;;;8.40;7.33;;;;;;;12.79;100.00;101187.50;4915202;29;20536;-70
2022/10/23 00:40:28;;;;;;;11.10;7.70;;;;;;;12.85;100.00;101190.22;4914540;29;20447;-71
2022/10/23 00:43:08;;;;;;;8.60;6.53;;;;;;;13.02;100.00;101190.63;4898476;29;20508;-72
2022/10/23 00:45:46;;;;;;;7.93;7.13;;;;;;;13.04;100.00;101183.09;4898289;29;20504;-70
2022/10/23 00:48:21;;;;;;;7.63;5.57;;;;;;;13.05;100.00;101193.75;4904988;29;20457;-70
2022/10/23 00:50:52;;;;;;;9.87;6.60;;;;;;;13.10;100.00;101190.41;4899618;29;20649;-70
2022/10/23 00:53:24;;;;;;;9.30;6.60;;;;;;;13.00;100.00;101190.00;4898165;29;20429;-70
2022/10/23 00:55:56;;;;;;;9.70;7.27;;;;;;;13.10;100.00;101189.56;4897784;29;20459;-70
2022/10/23 00:58:25;;;;;;;11.70;6.20;;;;;;;13.03;100.00;101192.28;4897881;29;20454;-71
2022/10/23 01:00:59;;;;;;;9.93;6.87;;;;;;;13.01;100.00;101187.06;4913361;29;20467;-70
2022/10/23 01:03:29;;;;;;;8.40;6.80;;;;;;;13.18;100.00;101198.34;4911148;29;20450;-70
2022/10/23 01:06:05;;;;;;;9.03;6.77;;;;;;;13.30;100.00;101196.66;4898045;29;20444;-70
2022/10/23 01:08:43;;;;;;;11.63;6.33;;;;;;;13.28;100.00;101192.47;4898206;29;20445;-70
2022/10/23 01:11:17;;;;;;;11.67;8.10;;;;;;;13.27;100.00;101196.22;4914594;29;21007;-70
2022/10/23 01:13:53;;;;;;;10.70;5.27;;;;;;;13.29;100.00;101189.56;4897901;29;20510;-70
2022/10/23 01:16:33;;;;;;;9.43;6.87;;;;;;;13.21;100.00;101192.50;4898336;29;20557;-69
2022/10/23 01:19:11;;;;;;;5.97;5.37;;;;;;;13.30;100.00;101187.69;4898125;29;20436;-70
2022/10/23 01:21:54;;;;;;;8.37;5.57;;;;;;;13.24;100.00;101186.63;4914863;29;20429;-70
2022/10/23 01:24:46;;;;;;;13.30;6.63;;;;;;;13.32;100.00;101189.13;4897824;29;20438;-70
2022/10/23 01:27:26;;;;;;;8.07;5.77;;;;;;;13.31;100.00;101186.63;4908980;29;20517;-69
2022/10/23 01:30:05;;;;;;;8.07;6.87;;;;;;;13.27;100.00;101197.06;4906849;29;20430;-70
2022/10/23 01:32:46;;;;;;;5.80;5.17;;;;;;;13.19;100.00;101200.03;4911349;29;20486;-71
2022/10/23 01:35:22;;;;;;;10.77;5.70;;;;;;;13.21;100.00;101192.50;4912603;29;20838;-70
2022/10/23 01:38:06;;;;;;;8.03;6.10;;;;;;;13.12;100.00;101199.19;4909832;29;20840;-71
2022/10/23 01:40:44;;;;;;;9.27;5.50;;;;;;;13.20;100.00;101198.16;4904248;29;20549;-70
2022/10/23 01:43:20;;;;;;;6.13;5.40;;;;;;;13.22;100.00;101194.16;4895339;29;20437;-70
2022/10/23 01:45:53;;;;;;;7.73;6.90;;;;;;;13.23;100.00;101203.16;4896669;29;20472;-69
2022/10/23 01:48:27;;;;;;;12.23;6.53;;;;;;;13.10;100.00;101201.28;4912671;29;20441;-70
2022/10/23 01:51:01;;;;;;;9.20;5.53;;;;;;;13.32;100.00;101197.28;4913925;29;20437;-70
2022/10/23 01:53:34;;;;;;;5.83;5.33;;;;;;;13.33;100.00;101200.84;4912914;29;20783;-71
2022/10/23 01:56:10;;;;;;;7.40;4.87;;;;;;;13.23;100.00;101209.41;4912757;29;20477;-69
2022/10/23 01:58:46;;;;;;;8.53;5.83;;;;;;;13.28;100.00;101204.19;4896760;29;21166;-71
2022/10/23 02:01:19;;;;;;;6.67;5.10;;;;;;;13.26;100.00;101195.44;4896838;29;20424;-70
2022/10/23 02:03:53;;;;;;;7.00;5.13;;;;;;;13.38;100.00;101192.88;4910360;29;20975;-71
2022/10/23 02:06:23;;;;;;;7.70;6.70;;;;;;;13.39;100.00;101189.94;4912775;29;20511;-70
2022/10/23 02:08:53;;;;;;;8.53;6.50;;;;;;;13.46;100.00;101184.47;4898306;29;20902;-70
2022/10/23 02:11:23;;;;;;;8.13;5.60;;;;;;;13.38;100.00;101188.28;4914411;29;20469;-70
2022/10/23 02:14:02;;;;;;;9.30;5.83;;;;;;;13.27;100.00;101191.63;4913602;29;20496;-70
2022/10/23 02:16:39;;;;;;;6.87;6.20;;;;;;;13.32;100.00;101189.13;4900108;29;20447;-72
2022/10/23 02:19:17;;;;;;;9.73;6.63;;;;;;;13.26;100.00;101191.88;4907298;29;20549;-70
2022/10/23 02:21:53;;;;;;;7.83;5.03;;;;;;;13.43;100.00;101191.19;4895514;29;20556;-71
2022/10/23 02:24:31;;;;;;;10.60;5.50;;;;;;;13.53;100.00;101189.91;4912862;29;20439;-70
2022/10/23 02:27:08;;;;;;;5.70;5.20;;;;;;;13.55;99.87;101187.81;4896303;29;20477;-70
2022/10/23 02:29:44;;;;;;;6.87;5.30;;;;;;;13.59;99.28;101183.63;4912355;29;20828;-71
2022/10/23 02:32:17;;;;;;;6.93;5.50;;;;;;;13.60;99.31;101196.16;4912346;29;20490;-70
2022/10/23 02:34:48;;;;;;;10.87;5.63;;;;;;;13.58;98.93;101187.38;4912023;29;20446;-70
2022/10/23 02:37:18;;;;;;;6.13;5.53;;;;;;;13.62;98.38;101177.72;4896879;29;20874;-70
2022/10/23 02:39:48;;;;;;;16.43;7.13;;;;;;;13.41;99.84;101176.97;4912313;29;20919;-70
2022/10/23 02:42:23;;;;;;;9.57;5.57;;;;;;;13.36;100.00;101184.13;4912499;29;20420;-70
2022/10/23 02:45:04;;;;;;;11.87;5.27;;;;;;;13.33;100.00;101182.63;4897220;29;20486;-70
2022/10/23 02:47:44;;;;;;;8.50;6.00;;;;;;;13.29;100.00;101184.13;4905345;29;20438;-70
2022/10/23 02:50:21;;;;;;;10.23;6.17;;;;;;;13.17;100.00;101179.56;4896828;29;20552;-70
2022/10/23 02:53:04;;;;;;;10.00;6.97;;;;;;;13.09;100.00;101183.28;4897065;29;20484;-70
2022/10/23 02:55:51;;;;;;;9.80;6.10;;;;;;;13.08;100.00;101185.16;4897578;29;21183;-70
2022/10/23 02:58:27;;;;;;;14.33;7.80;;;;;;;13.08;100.00;101187.03;4899880;29;20451;-69
2022/10/23 03:01:03;;;;;;;11.57;5.47;;;;;;;13.14;100.00;101188.97;4897270;29;20467;-69
2022/10/23 03:03:38;;;;;;;7.70;5.80;;;;;;;13.25;100.00;101188.31;4916986;29;20442;-68
2022/10/23 03:06:08;;;;;;;12.43;5.93;;;;;;;13.22;100.00;101188.72;4917726;29;20467;-70
2022/10/23 03:08:43;;;;;;;6.47;5.53;;;;;;;13.03;100.00;101187.69;4916322;29;20448;-69
2022/10/23 03:11:15;;;;;;;11.10;5.97;;;;;;;12.89;100.00;101180.59;4900368;29;20928;-70
2022/10/23 03:13:54;;;;;;;10.87;6.87;;;;;;;12.80;100.00;101183.75;4900037;29;20488;-70
2022/10/23 03:16:43;;;;;;;10.77;6.00;;;;;;;12.82;100.00;101192.53;4905619;29;20456;-70
2022/10/23 03:19:25;;;;;;;6.07;4.80;;;;;;;12.81;100.00;101188.13;4916460;29;20536;-70
2022/10/23 03:22:07;;;;;;;7.47;6.40;;;;;;;12.59;100.00;101182.91;4898975;29;20459;-71
2022/10/23 03:24:47;;;;;;;5.97;5.10;;;;;;;12.42;100.00;101178.94;4896212;29;20523;-69
2022/10/23 03:27:24;;;;;;;6.80;5.60;;;;;;;12.31;100.00;101181.41;4909863;29;20904;-70
2022/10/23 03:30:10;;;;;;;10.40;6.20;;;;;;;12.25;100.00;101174.94;4898975;29;20489;-70
2022/10/23 03:32:47;;;;;;;10.10;7.03;;;;;;;12.35;100.00;101183.50;4909971;29;20469;-70
2022/10/23 03:35:21;;;;;;;9.33;6.20;;;;;;;12.36;100.00;101182.47;4901421;29;20477;-70
2022/10/23 03:37:54;;;;;;;6.40;5.70;;;;;;;12.37;100.00;101184.13;4899536;29;20439;-69
2022/10/23 03:40:29;;;;;;;10.10;6.93;;;;;;;12.32;100.00;101177.66;4915163;29;20515;-70
2022/10/23 03:43:02;;;;;;;12.43;6.80;;;;;;;12.27;100.00;101182.88;4908407;29;20573;-69
2022/10/23 03:45:37;;;;;;;9.10;5.70;;;;;;;12.22;100.00;101185.38;4898263;29;20485;-69
2022/10/23 03:48:16;;;;;;;7.50;5.30;;;;;;;12.08;100.00;101184.50;4899406;29;20438;-71
2022/10/23 03:50:51;;;;;;;9.77;6.00;;;;;;;11.95;100.00;101189.91;4899120;29;20457;-70
2022/10/23 03:53:25;;;;;;;14.93;7.00;;;;;;;11.91;100.00;101189.44;4916293;29;21321;-70
2022/10/23 03:55:59;;;;;;;14.60;6.33;;;;;;;11.92;100.00;101190.28;4914341;29;20489;-70
2022/10/23 03:58:35;;;;;;;8.50;6.53;;;;;;;11.79;100.00;101187.53;4916332;29;20956;-70
2022/10/23 04:01:09;;;;;;;8.07;7.27;;;;;;;11.81;100.00;101190.91;4914339;29;20843;-69
2022/10/23 04:03:48;;;;;;;15.70;7.40;;;;;;;11.78;100.00;101200.25;4912194;29;20820;-70
2022/10/23 04:06:25;;;;;;;7.37;5.53;;;;;;;11.84;100.00;101196.75;4902466;29;20452;-70
2022/10/23 04:09:03;;;;;;;11.77;8.30;;;;;;;11.77;100.00;101202.13;4899319;29;21039;-70
2022/10/23 04:11:33;;;;;;;11.80;6.50;;;;;;;11.61;100.00;101199.75;4915806;29;20541;-70
2022/10/23 04:14:02;;;;;;;10.87;6.97;;;;;;;11.50;100.00;101202.19;4899062;29;20636;-70
2022/10/23 04:16:31;;;;;;;9.50;7.10;;;;;;;11.39;100.00;101198.16;5004480;23;20474;-71
2022/10/23 04:19:02;;;;;;;12.83;6.60;;;;;;;11.35;100.00;101194.19;4917962;29;20440;-71
2022/10/23 04:21:31;;;;;;;11.53;7.23;;;;;;;11.38;100.00;101193.78;4920311;29;20441;-72
2022/10/23 04:24:00;;;;;;;11.73;7.33;;;;;;;11.33;100.00;101190.81;4918564;29;20492;-73
2022/10/23 04:26:29;;;;;;;9.73;6.73;;;;;;;11.21;100.00;101197.84;4914150;29;20476;-72
2022/10/23 04:28:58;;;;;;;10.53;7.10;;;;;;;11.26;100.00;101192.69;4907538;29;20449;-73
2022/10/23 04:31:29;;;;;;;10.20;6.70;;;;;;;11.20;100.00;101194.31;4900556;29;20984;-72
2022/10/23 04:33:58;;;;;;;13.07;7.80;;;;;;;11.13;100.00;101189.91;4914709;29;20472;-71
2022/10/23 04:36:33;;;;;;;12.03;6.73;;;;;;;11.04;100.00;101186.47;4904033;29;20729;-72
2022/10/23 04:39:08;;;;;;;17.13;6.70;;;;;;;11.01;100.00;101183.34;4898549;29;20427;-71
2022/10/23 04:41:40;;;;;;;12.87;7.57;;;;;;;10.90;100.00;101177.44;4900086;29;20441;-71
2022/10/23 04:44:09;;;;;;;10.77;6.93;;;;;;;10.88;100.00;101184.94;4915570;29;20440;-71
2022/10/23 04:46:39;;;;;;;14.57;7.93;;;;;;;10.84;100.00;101180.91;4907776;29;20448;-72
2022/10/23 04:49:10;;;;;;;10.90;8.07;;;;;;;10.92;100.00;101184.53;4911983;29;20904;-72
2022/10/23 04:52:02;;;;;;;10.20;5.97;;;;;;;10.86;100.00;101183.44;4914372;29;20460;-72
2022/10/23 04:54:49;;;;;;;11.40;7.40;;;;;;;10.87;100.00;101180.53;4898918;29;20452;-72
2022/10/23 04:57:30;;;;;;;17.03;6.77;;;;;;;10.75;100.00;101181.25;4894312;29;20453;-71
2022/10/23 05:00:06;;;;;;;10.53;7.80;;;;;;;10.75;100.00;101186.69;4915166;29;20480;-72
2022/10/23 05:02:46;;;;;;;11.60;7.57;;;;;;;10.67;100.00;101200.34;4911859;29;20473;-72
2022/10/23 05:05:17;;;;;;;12.97;7.83;;;;;;;10.63;100.00;101199.09;4898746;29;20454;-72
2022/10/23 05:07:58;;;;;;;12.43;7.93;;;;;;;10.68;100.00;101189.34;4900339;29;20438;-71
2022/10/23 05:10:49;;;;;;;12.07;6.73;;;;;;;10.62;100.00;101187.41;4914897;29;20445;-72
2022/10/23 05:13:19;;;;;;;11.17;7.77;;;;;;;10.62;100.00;101178.47;4904998;29;20478;-70
2022/10/23 05:15:50;;;;;;;13.00;7.20;;;;;;;10.67;100.00;101184.13;4914761;29;20511;-70
2022/10/23 05:18:23;;;;;;;13.03;7.40;;;;;;;10.68;100.00;101189.34;4900624;29;20453;-71
2022/10/23 05:20:59;;;;;;;13.53;7.83;;;;;;;10.63;100.00;101189.09;4912374;29;20971;-72
2022/10/23 05:23:33;;;;;;;11.17;8.07;;;;;;;10.56;100.00;101188.19;4899602;29;20776;-71
2022/10/23 05:26:04;;;;;;;13.00;8.50;;;;;;;10.56;100.00;101188.19;4898748;29;20469;-72
2022/10/23 05:28:33;;;;;;;14.40;8.90;;;;;;;10.60;100.00;101194.06;4900501;29;20445;-72
2022/10/23 05:31:05;;;;;;;11.80;8.70;;;;;;;10.64;100.00;101189.94;4902766;29;20540;-71
2022/10/23 05:33:37;;;;;;;13.17;9.50;;;;;;;10.69;100.00;101185.63;4897309;29;21154;-71
2022/10/23 05:36:08;;;;;;;11.70;7.83;;;;;;;10.63;100.00;101191.81;4895932;29;20440;-72
2022/10/23 05:38:38;;;;;;;12.60;7.43;;;;;;;10.71;100.00;101188.09;4913447;29;20739;-71
2022/10/23 05:41:15;;;;;;;11.10;8.20;;;;;;;10.67;100.00;101201.19;4902291;29;20442;-71
2022/10/23 05:43:45;;;;;;;9.43;8.30;;;;;;;10.63;100.00;101194.50;4910136;29;20443;-72
2022/10/23 05:46:43;;;;;;;10.67;7.67;;;;;;;10.65;100.00;101200.53;4911779;29;20457;-71
2022/10/23 05:49:37;;;;;;;17.40;8.90;;;;;;;10.64;100.00;101198.06;4896538;29;20802;-72
2022/10/23 05:52:26;;;;;;;10.37;7.23;;;;;;;10.70;100.00;101199.97;4893847;29;20531;-72
2022/10/23 05:55:09;;;;;;;12.53;7.77;;;;;;;10.68;100.00;101202.88;4910827;29;20489;-72
2022/10/23 05:57:52;;;;;;;9.73;7.60;;;;;;;10.75;100.00;101198.34;4893745;29;20458;-72
2022/10/23 06:00:32;;;;;;;13.30;8.97;;;;;;;10.72;100.00;101204.16;4912420;29;20460;-73
2022/10/23 06:03:21;;;;;;;11.37;8.07;;;;;;;10.75;100.00;101203.75;4913630;29;20437;-72
2022/10/23 06:05:50;;;;;;;18.63;9.17;;;;;;;10.71;100.00;101207.91;4912468;29;20515;-74
2022/10/23 06:08:23;;;;;;;18.27;9.03;;;;;;;10.73;100.00;101197.72;4897047;29;20990;-71
2022/10/23 06:10:54;;;;;;;15.07;8.20;;;;;;;10.75;100.00;101192.94;4901342;29;20960;-71
2022/10/23 06:13:23;;;;;;;14.03;8.50;;;;;;;10.82;100.00;101193.00;4913415;29;20455;-73
2022/10/23 06:15:52;;;;;;;13.00;9.07;;;;;;;10.88;100.00;101187.63;4903725;29;20683;-72
2022/10/23 06:18:25;;;;;;;12.60;9.00;;;;;;;10.86;100.00;101194.28;4893498;29;20468;-71
2022/10/23 06:21:02;;;;;;;16.13;8.60;;;;;;;10.96;100.00;101193.91;4901464;29;20477;-71
2022/10/23 06:23:32;;;;;;;13.30;8.63;;;;;;;11.07;100.00;101196.09;4894402;29;20450;-71
2022/10/23 06:26:18;;;;;;;11.27;8.53;;;;;;;11.01;100.00;101188.75;4909203;29;20441;-71
2022/10/23 06:29:06;;;;;;;15.73;8.47;;;;;;;11.01;100.00;101191.47;4901960;29;20531;-72
2022/10/23 06:31:36;;;;;;;17.07;8.73;;;;;;;11.12;100.00;101188.22;4896251;29;20465;-72
2022/10/23 06:34:05;;;;;;;11.57;9.20;;;;;;;11.14;100.00;101196.97;4901119;29;20487;-71
2022/10/23 06:36:36;;;;;;;14.23;9.10;;;;;;;11.30;100.00;101188.53;4916061;29;20447;-72
2022/10/23 06:39:23;;;;;;;12.50;8.50;;;;;;;11.33;100.00;101180.81;4914365;29;20441;-71
2022/10/23 06:42:07;;;;;;;11.67;9.13;;;;;;;11.44;100.00;101179.44;4921956;29;20461;-72
2022/10/23 06:44:59;;;;;;;9.33;8.30;;;;;;;11.50;100.00;101184.06;4915130;29;20847;-71
2022/10/23 06:47:53;;;;;;;10.37;8.90;;;;;;;11.56;100.00;101191.38;4917813;29;20608;-72
2022/10/23 06:50:41;;;;;;;15.93;10.47;;;;;;;11.76;100.00;101192.31;4916311;29;20779;-72
2022/10/23 06:53:14;;;;;;;18.53;9.00;;;;;;;11.81;100.00;101196.31;4900637;29;20504;-72
2022/10/23 06:55:49;;;;;;;15.47;8.37;;;;;;;11.91;100.00;101199.50;4899962;29;20477;-72
2022/10/23 06:58:24;;;;;;;13.30;8.17;;;;;;;11.97;100.00;101198.66;4916647;29;20449;-72
2022/10/23 07:01:15;;;;;;;11.37;9.40;;;;;;;12.17;100.00;101204.97;4912671;29;20972;-71
2022/10/23 07:03:45;;;;;;;16.50;9.57;;;;;;;12.27;100.00;101207.28;4894146;29;20815;-72
2022/10/23 07:06:16;;;;;;;9.70;8.23;;;;;;;12.37;100.00;101203.13;4896238;29;20476;-71
2022/10/23 07:08:45;;;;;;;10.10;8.00;;;;;;;12.37;100.00;101205.84;4900129;29;20515;-72
2022/10/23 07:11:34;;;;;;;13.70;9.33;;;;;;;12.44;100.00;101209.41;4916604;29;20521;-73
2022/10/23 07:14:04;;;;;;;13.00;8.37;;;;;;;12.53;100.00;101194.59;4915608;29;20505;-71
2022/10/23 07:16:33;;;;;;;14.83;8.97;;;;;;;12.62;100.00;101197.94;4902152;29;20865;-71
2022/10/23 07:19:03;;;;;;;15.07;8.77;;;;;;;12.73;100.00;101204.66;4899955;29;20453;-71
2022/10/23 07:21:52;;;;;;;15.20;10.07;;;;;;;13.02;100.00;101207.75;4917211;29;20987;-72
2022/10/23 07:24:37;;;;;;;14.80;9.77;;;;;;;13.12;100.00;101215.50;4898957;29;20488;-72
2022/10/23 07:27:15;;;;;;;18.97;9.87;;;;;;;13.30;100.00;101220.28;4899235;29;20423;-71
2022/10/23 07:29:49;;;;;;;13.90;9.37;;;;;;;13.36;100.00;101214.00;4900289;29;20524;-71
2022/10/23 07:32:18;;;;;;;14.20;8.30;;;;;;;13.46;100.00;101217.09;4901109;29;20998;-72
2022/10/23 07:35:07;;;;;;;14.60;10.10;;;;;;;13.47;99.49;101214.19;4918121;29;20536;-71
2022/10/23 07:37:37;;;;;;;20.17;9.07;;;;;;;13.74;96.78;101211.38;4900725;29;20484;-70
2022/10/23 07:40:09;;;;;;;9.30;7.90;;;;;;;13.61;97.59;101209.53;4903674;29;20441;-71
2022/10/23 07:42:44;;;;;;;10.97;9.10;;;;;;;13.57;97.96;101204.72;4902543;29;20456;-70
2022/10/23 07:45:14;;;;;;;11.83;8.13;;;;;;;13.69;97.65;101216.63;4910946;29;20913;-71
2022/10/23 07:47:51;;;;;;;14.57;9.57;;;;;;;13.83;95.39;101212.81;4906937;29;20449;-72
2022/10/23 07:50:23;;;;;;;10.23;9.20;;;;;;;13.81;96.52;101209.44;4909561;29;20566;-71
2022/10/23 07:52:52;;;;;;;10.10;7.77;;;;;;;13.83;95.67;101208.22;4904073;29;20414;-71
2022/10/23 07:55:24;;;;;;;12.53;9.67;;;;;;;13.84;96.43;101209.03;4906250;29;21037;-70
2022/10/23 07:58:01;;;;;;;15.50;9.03;;;;;;;14.18;94.08;101203.22;4903680;29;20427;-71
2022/10/23 08:00:41;;;;;;;11.33;8.77;;;;;;;14.29;93.49;101210.66;4922158;29;20474;-71
2022/10/23 08:03:25;;;;;;;16.70;8.80;;;;;;;14.33;93.35;101208.34;4927522;29;20423;-71
2022/10/23 08:05:56;;;;;;;9.87;7.90;;;;;;;14.38;92.73;101199.56;4899126;29;20461;-72
2022/10/23 08:08:26;;;;;;;9.73;7.73;;;;;;;14.57;91.78;101188.50;4899395;29;20468;-71
2022/10/23 08:11:01;;;;;;;13.20;10.00;;;;;;;14.75;90.86;101195.94;4897522;29;20940;-71
2022/10/23 08:13:35;;;;;;;10.30;8.33;;;;;;;14.95;88.68;101191.16;4898827;29;20423;-72
2022/10/23 08:16:08;;;;;;;10.90;7.70;;;;;;;15.14;87.60;101195.56;4897819;29;20460;-72
2022/10/23 08:19:07;;;;;;;11.13;7.70;;;;;;;15.25;87.38;101193.16;4915279;29;20423;-71
2022/10/23 08:21:39;;;;;;;11.17;8.87;;;;;;;15.32;86.00;101197.47;4895828;29;20425;-71
2022/10/23 08:24:12;;;;;;;12.70;8.53;;;;;;;15.34;85.32;101195.38;4906966;29;20816;-73
2022/10/23 08:26:44;;;;;;;12.60;8.00;;;;;;;15.45;84.75;101194.59;4898886;29;20857;-71
2022/10/23 08:29:14;;;;;;;12.83;9.43;;;;;;;15.60;84.16;101199.72;4895179;29;20420;-72
2022/10/23 08:31:44;;;;;;;11.73;7.30;;;;;;;15.70;83.64;101199.16;4902963;29;20983;-72
2022/10/23 08:34:25;;;;;;;15.63;8.77;;;;;;;15.73;82.65;101204.19;4914820;29;20527;-72
2022/10/23 08:36:55;;;;;;;9.17;7.23;;;;;;;15.79;82.10;101195.91;4915395;29;20477;-72
2022/10/23 08:39:25;;;;;;;12.37;7.13;;;;;;;15.94;80.77;101198.22;4897989;29;20457;-72
2022/10/23 08:42:04;;;;;;;9.27;7.47;;;;;;;16.13;80.72;101199.03;4899174;29;20424;-72
2022/10/23 08:44:38;;;;;;;7.20;6.20;;;;;;;16.04;80.63;101193.91;4914531;29;20412;-70
2022/10/23 08:47:11;;;;;;;10.00;7.40;;;;;;;16.03;79.90;101194.13;4894350;29;20531;-71
2022/10/23 08:50:03;;;;;;;9.50;6.47;;;;;;;16.12;80.47;101195.47;4911828;29;20444;-71
2022/10/23 08:52:37;;;;;;;8.13;6.47;;;;;;;16.13;80.75;101197.13;4914700;29;20436;-71
2022/10/23 08:55:15;;;;;;;11.27;7.67;;;;;;;16.24;78.98;101187.31;4898780;29;20487;-71
2022/10/23 08:58:03;;;;;;;11.30;6.67;;;;;;;16.16;79.21;101190.41;4900062;29;20464;-70
2022/10/23 09:00:33;;;;;;;10.33;5.90;;;;;;;16.03;79.70;101189.50;4896389;29;20500;-72
2022/10/23 09:03:05;;;;;;;9.23;5.27;;;;;;;16.05;80.22;101195.56;4911374;29;20412;-72
2022/10/23 09:05:45;;;;;;;7.80;5.87;;;;;;;16.26;78.63;101193.41;4914609;29;20450;-71
2022/10/23 09:08:34;;;;;;;10.43;6.67;;;;;;;16.23;78.97;101188.38;4912665;29;20440;-73
2022/10/23 09:11:07;;;;;;;11.50;6.50;;;;;;;16.24;78.69;101187.31;4897628;29;20433;-71
2022/10/23 09:14:23;;;;;;;12.83;5.30;;;;;;;16.28;79.38;101186.63;4915173;29;20691;-71
2022/10/23 09:17:06;;;;;;;8.40;6.80;;;;;;;16.33;78.83;101188.66;4914171;29;20500;-71
2022/10/23 09:19:36;;;;;;;9.37;6.83;;;;;;;16.34;77.73;101184.88;4903896;29;20811;-73
2022/10/23 09:22:06;;;;;;;11.63;6.23;;;;;;;16.28;77.80;101180.31;4918454;29;20437;-72
2022/10/23 09:24:35;;;;;;;6.73;5.87;;;;;;;16.45;77.14;101178.63;4918533;29;20413;-72
2022/10/23 09:27:04;;;;;;;7.43;4.30;;;;;;;16.43;76.95;101180.72;4915004;29;20416;-72
2022/10/23 09:29:35;;;;;;;6.60;5.30;;;;;;;16.59;76.57;101182.84;4914805;29;20444;-72
2022/10/23 09:32:06;;;;;;;7.97;4.33;;;;;;;16.54;76.18;101179.94;4902011;29;20420;-71
2022/10/23 09:34:37;;;;;;;7.00;4.37;;;;;;;16.68;75.84;101175.94;4914223;29;20688;-72
2022/10/23 09:37:21;;;;;;;8.17;5.53;;;;;;;16.70;76.07;101184.72;4914271;29;20465;-72
2022/10/23 09:40:01;;;;;;;10.60;6.30;;;;;;;16.72;74.95;101181.78;4920405;29;20479;-72
2022/10/23 09:42:30;;;;;;;7.60;6.17;;;;;;;16.86;73.90;101184.03;4918708;29;20423;-72
2022/10/23 09:45:00;;;;;;;13.60;6.20;;;;;;;16.89;73.58;101183.56;4904198;29;20450;-72
2022/10/23 09:47:29;;;;;;;10.20;6.10;;;;;;;17.07;73.29;101179.06;4895780;29;20777;-71
2022/10/23 09:50:00;;;;;;;10.30;5.60;;;;;;;17.37;71.91;101188.81;4914777;29;20578;-72
2022/10/23 09:52:35;;;;;;;4.50;3.80;;;;;;;17.44;72.02;101185.91;4900886;29;20697;-72
2022/10/23 09:55:19;;;;;;;7.20;4.17;;;;;;;17.54;71.85;101169.72;4914855;29;21025;-71
2022/10/23 09:57:49;;;;;;;6.40;5.20;;;;;;;17.76;71.48;101179.00;4914805;29;20419;-74
2022/10/23 10:00:21;;;;;;;6.90;5.40;;;;;;;17.77;71.29;101174.31;4899990;29;20523;-70
2022/10/23 10:02:58;;;;;;;6.67;4.40;;;;;;;17.82;70.83;101179.91;4898988;29;20428;-72
2022/10/23 10:06:01;;;;;;;7.10;4.60;;;;;;;17.93;70.52;101180.94;4905202;29;20427;-72
2022/10/23 10:08:46;;;;;;;11.83;5.87;;;;;;;17.83;69.88;101175.28;4914509;29;20441;-71
2022/10/23 10:11:21;;;;;;;12.93;4.70;;;;;;;17.82;70.07;101168.97;4913292;29;20441;-70
2022/10/23 10:14:11;;;;;;;5.83;4.53;;;;;;;17.95;69.93;101167.88;4912887;29;20419;-71
2022/10/23 10:16:48;;;;;;;8.97;4.40;;;;;;;18.03;69.23;101167.47;4947352;23;20756;-71
2022/10/23 10:19:27;;;;;;;5.60;3.50;;;;;;;17.98;69.30;101168.19;4929786;29;20436;-70
2022/10/23 10:22:07;;;;;;;5.03;3.80;;;;;;;18.21;68.40;101164.50;4916466;29;20429;-71
2022/10/23 10:24:46;;;;;;;5.90;3.53;;;;;;;18.33;67.63;101154.34;4916063;29;20914;-70
2022/10/23 10:27:30;;;;;;;6.80;3.80;;;;;;;18.48;67.64;101162.81;4913772;29;20953;-70
2022/10/23 10:30:05;;;;;;;5.70;3.23;;;;;;;18.67;66.49;101155.22;4922973;23;20492;-72
2022/10/23 10:32:43;;;;;;;5.73;2.57;;;;;;;18.71;65.92;101150.06;4900497;29;20452;-69
2022/10/23 10:35:37;;;;;;;6.47;2.77;;;;;;;18.67;66.04;101136.03;4895984;29;20550;-70
2022/10/23 10:38:42;;;;;;;3.63;2.30;;;;;;;18.70;66.73;101141.00;4877798;29;20436;-70
2022/10/23 10:41:32;;;;;;;6.17;2.33;;;;;;;18.65;65.58;101136.28;4874481;29;20981;-71
2022/10/23 10:44:26;;;;;;;4.53;3.13;;;;;;;18.55;65.89;101133.38;4890142;29;20882;-71
2022/10/23 10:46:58;;;;;;;4.33;2.07;;;;;;;18.64;65.89;101123.63;4884781;29;20516;-69
2022/10/23 10:49:38;;;;;;;4.03;2.33;;;;;;;18.78;65.33;101129.63;4878916;29;20421;-69
2022/10/23 10:52:25;;;;;;;3.30;2.23;;;;;;;18.79;65.63;101128.53;4883649;29;20516;-70
2022/10/23 10:55:05;;;;;;;7.80;3.47;;;;;;;18.96;65.62;101134.00;4900673;29;20467;-70
2022/10/23 10:57:39;;;;;;;5.03;2.83;;;;;;;19.18;65.28;101129.38;4894512;29;20480;-71
2022/10/23 11:00:15;;;;;;;5.00;2.63;;;;;;;19.32;64.69;101125.19;4877536;29;20428;-70
2022/10/23 11:02:48;;;;;;;5.00;2.67;;;;;;;19.61;62.94;101125.03;4897002;29;20456;-71
2022/10/23 11:05:27;;;;;;;4.47;2.37;;;;;;;19.60;62.63;101118.72;4876515;29;20444;-70
2022/10/23 11:08:00;;;;;;;7.70;2.90;;;;;;;19.45;63.52;101111.13;4875519;29;20444;-69
2022/10/23 11:10:31;;;;;;;7.33;2.60;;;;;;;19.29;64.45;101117.47;4899451;29;20441;-70
2022/10/23 11:13:00;;;;;;;4.70;3.20;;;;;;;19.39;64.33;101109.38;4909890;29;20803;-70
2022/10/23 11:15:35;;;;;;;9.33;2.60;;;;;;;19.35;64.85;101099.16;4894415;29;20444;-70
2022/10/23 11:18:12;;;;;;;3.37;2.67;;;;;;;19.38;65.09;101093.16;4899175;29;20464;-71
2022/10/23 11:21:00;;;;;;;3.83;3.20;;;;;;;19.53;64.87;101091.47;4880313;29;20465;-70
2022/10/23 11:23:56;;;;;;;4.40;3.03;;;;;;;19.73;64.34;101084.53;4885717;29;20540;-71
2022/10/23 11:26:40;;;;;;;5.23;4.17;;;;;;;19.84;63.81;101078.06;4861717;29;20448;-69
2022/10/23 11:29:35;;;;;;;5.00;3.47;;;;;;;19.89;63.87;101078.97;4908894;29;20480;-72
2022/10/23 11:32:26;;;;;;;7.00;3.27;;;;;;;19.75;64.24;101071.41;4897117;29;20409;-71
2022/10/23 11:35:20;;;;;;;6.57;3.80;;;;;;;19.60;64.45;101063.00;4880230;29;20464;-71
2022/10/23 11:38:00;;;;;;;8.67;3.50;;;;;;;19.75;64.42;101072.19;4897070;29;20477;-71
2022/10/23 11:40:30;;;;;;;4.67;4.17;;;;;;;19.82;64.52;101063.78;4882363;29;20819;-71
2022/10/23 11:43:01;;;;;;;9.20;3.70;;;;;;;19.76;65.29;101062.03;4904560;29;20420;-71
2022/10/23 11:45:36;;;;;;;6.83;4.87;;;;;;;19.92;64.76;101067.44;4902775;29;20482;-71
2022/10/23 11:48:19;;;;;;;9.03;4.07;;;;;;;19.89;64.53;101051.50;4895975;29;20498;-71
2022/10/23 11:50:55;;;;;;;8.20;5.77;;;;;;;20.13;64.19;101062.97;4892290;29;20488;-71
2022/10/23 11:53:38;;;;;;;6.90;3.80;;;;;;;20.12;63.81;101053.06;4887009;29;20450;-73
2022/10/23 11:56:26;;;;;;;5.93;4.10;;;;;;;19.91;64.35;101040.22;4891368;29;20559;-71
2022/10/23 11:58:58;;;;;;;5.73;3.70;;;;;;;19.78;64.76;101030.50;4899465;29;20873;-70
2022/10/23 12:01:40;;;;;;;5.07;3.50;;;;;;;19.92;64.53;101025.41;4901986;29;20658;-70